createdAt,value
2022-08-08T00:00:53.525Z,18.06
2022-08-08T00:02:04.024Z,18.08
2022-08-08T00:03:01.702Z,18.14
2022-08-08T00:04:25.388Z,17.97
2022-08-08T00:06:03.432Z,17.90
2022-08-08T00:07:16.883Z,17.83
2022-08-08T00:08:33.482Z,17.76
2022-08-08T00:09:41.278Z,17.90
2022-08-08T00:10:55.946Z,17.98
2022-08-08T00:12:09.332Z,18.08
2022-08-08T00:14:16.606Z,18.17
2022-08-08T00:14:57.176Z,18.27
2022-08-08T00:15:57.408Z,18.29
2022-08-08T00:16:55.681Z,18.26
2022-08-08T00:18:06.918Z,18.26
2022-08-08T00:19:19.581Z,18.02
2022-08-08T00:20:38.855Z,18.01
2022-08-08T00:21:47.821Z,18.06
2022-08-08T00:22:57.399Z,18.14
2022-08-08T00:24:09.959Z,18.02
2022-08-08T00:25:17.612Z,18.01
2022-08-08T00:26:35.692Z,18.14
2022-08-08T00:27:42.242Z,18.17
2022-08-08T00:28:48.563Z,18.11
2022-08-08T00:29:55.327Z,18.08
2022-08-08T00:32:14.863Z,18.09
2022-08-08T00:32:20.874Z,18.15
2022-08-08T00:33:15.622Z,18.07
2022-08-08T00:34:46.041Z,18.08
2022-08-08T00:36:15.066Z,18.06
2022-08-08T00:37:47.238Z,17.98
2022-08-08T00:38:51.745Z,18.01
2022-08-08T00:41:08.978Z,17.94
2022-08-08T00:41:14.482Z,17.90
2022-08-08T00:42:36.259Z,17.94
2022-08-08T00:43:59.179Z,18.02
2022-08-08T00:45:04.439Z,17.87
2022-08-08T00:46:24.751Z,17.93
2022-08-08T00:48:05.291Z,17.99
2022-08-08T00:49:21.994Z,18.01
2022-08-08T00:50:40.922Z,18.07
2022-08-08T00:52:04.287Z,18.18
2022-08-08T00:53:16.802Z,18.32
2022-08-08T00:54:55.805Z,18.24
2022-08-08T00:56:23.939Z,18.23
2022-08-08T00:57:48.575Z,18.14
2022-08-08T00:59:11.523Z,18.18
2022-08-08T01:00:23.419Z,18.10
2022-08-08T01:01:39.331Z,18.00
2022-08-08T01:03:59.200Z,18.06
2022-08-08T01:04:31.401Z,18.09
2022-08-08T01:06:12.428Z,18.10
2022-08-08T01:07:34.831Z,17.87
2022-08-08T01:09:00.281Z,17.99
2022-08-08T01:10:14.684Z,17.85
2022-08-08T01:11:39.189Z,17.88
2022-08-08T01:12:55.710Z,17.95
2022-08-08T01:14:16.309Z,18.03
2022-08-08T01:15:54.326Z,17.95
2022-08-08T01:17:35.059Z,18.03
2022-08-08T01:18:53.625Z,17.85
2022-08-08T01:20:08.225Z,17.70
2022-08-08T01:22:07.138Z,17.74
2022-08-08T01:22:57.585Z,17.71
2022-08-08T01:24:26.189Z,17.75
2022-08-08T01:25:49.123Z,17.72
2022-08-08T01:27:10.982Z,17.71
2022-08-08T01:28:28.011Z,17.71
2022-08-08T01:29:59.478Z,17.73
2022-08-08T01:30:59.934Z,17.73
2022-08-08T01:32:30.354Z,17.85
2022-08-08T01:34:00.620Z,17.89
2022-08-08T01:34:57.263Z,17.92
2022-08-08T01:36:12.368Z,17.89
2022-08-08T01:37:57.670Z,17.91
2022-08-08T01:39:03.430Z,17.99
2022-08-08T01:40:35.817Z,17.89
2022-08-08T01:42:15.103Z,17.95
2022-08-08T01:43:38.852Z,17.92
2022-08-08T01:44:50.703Z,17.86
2022-08-08T01:46:14.681Z,17.82
2022-08-08T01:48:03.126Z,17.55
2022-08-08T01:48:34.181Z,17.53
2022-08-08T01:49:53.754Z,17.49
2022-08-08T01:51:31.826Z,17.48
2022-08-08T01:52:55.817Z,17.55
2022-08-08T01:55:17.848Z,17.60
2022-08-08T01:58:19.262Z,17.73
2022-08-08T02:00:50.262Z,17.89
2022-08-08T02:02:15.790Z,17.55
2022-08-08T02:03:54.782Z,17.58
2022-08-08T02:04:33.030Z,17.55
2022-08-08T02:05:56.352Z,17.63
2022-08-08T02:07:06.731Z,17.54
2022-08-08T02:08:34.493Z,17.59
2022-08-08T02:10:03.688Z,17.53
2022-08-08T02:11:07.157Z,17.65
2022-08-08T02:12:25.508Z,17.57
2022-08-08T02:13:54.162Z,17.59
2022-08-08T02:14:58.854Z,17.58
2022-08-08T02:16:08.716Z,17.60
2022-08-08T02:17:20.366Z,17.56
2022-08-08T02:20:15.878Z,17.47
2022-08-08T02:21:39.485Z,17.36
2022-08-08T02:23:15.965Z,17.16
2022-08-08T02:24:27.943Z,17.23
2022-08-08T02:25:47.205Z,17.14
2022-08-08T02:26:58.201Z,17.17
2022-08-08T02:28:19.400Z,17.17
2022-08-08T02:29:51.716Z,17.08
2022-08-08T02:31:58.610Z,17.03
2022-08-08T02:32:45.869Z,17.05
2022-08-08T02:34:00.630Z,17.20
2022-08-08T02:35:11.775Z,17.12
2022-08-08T02:36:48.442Z,17.12
2022-08-08T02:38:13.936Z,17.27
2022-08-08T02:39:59.705Z,17.30
2022-08-08T02:40:53.427Z,17.38
2022-08-08T02:42:36.031Z,17.34
2022-08-08T02:44:38.507Z,17.35
2022-08-08T02:45:18.524Z,17.35
2022-08-08T02:46:31.797Z,17.27
2022-08-08T02:47:47.023Z,17.31
2022-08-08T02:49:09.374Z,17.33
2022-08-08T02:50:37.474Z,17.30
2022-08-08T02:51:56.357Z,17.31
2022-08-08T02:52:55.832Z,17.44
2022-08-08T02:54:05.025Z,17.43
2022-08-08T02:55:26.608Z,17.43
2022-08-08T02:56:45.572Z,17.45
2022-08-08T02:58:26.681Z,17.54
2022-08-08T03:00:26.669Z,17.60
2022-08-08T03:01:39.691Z,17.53
2022-08-08T03:03:03.937Z,17.44
2022-08-08T03:05:03.999Z,17.35
2022-08-08T03:06:01.775Z,17.38
2022-08-08T03:07:41.738Z,17.20
2022-08-08T03:09:06.168Z,17.32
2022-08-08T03:10:37.808Z,17.18
2022-08-08T03:12:01.223Z,17.20
2022-08-08T03:15:53.464Z,17.11
2022-08-08T03:15:56.485Z,17.20
2022-08-08T03:16:05.682Z,17.06
2022-08-08T03:17:39.611Z,17.00
2022-08-08T03:19:17.706Z,17.04
2022-08-08T03:20:20.656Z,17.05
2022-08-08T03:21:40.582Z,17.00
2022-08-08T03:22:38.626Z,16.95
2022-08-08T03:23:47.209Z,16.91
2022-08-08T03:24:36.062Z,17.02
2022-08-08T03:25:39.515Z,16.89
2022-08-08T03:26:45.771Z,16.75
2022-08-08T03:27:57.050Z,16.83
2022-08-08T03:29:17.011Z,16.90
2022-08-08T03:30:15.298Z,16.90
2022-08-08T03:31:25.826Z,16.98
2022-08-08T03:32:30.521Z,17.02
2022-08-08T03:33:54.827Z,16.94
2022-08-08T03:34:40.001Z,16.99
2022-08-08T03:35:47.156Z,17.08
2022-08-08T03:36:51.978Z,17.11
2022-08-08T03:38:53.968Z,17.03
2022-08-08T03:39:14.737Z,17.11
2022-08-08T03:40:10.800Z,17.24
2022-08-08T03:42:04.038Z,17.23
2022-08-08T03:42:30.056Z,17.31
2022-08-08T03:43:21.929Z,17.45
2022-08-08T03:44:35.186Z,17.42
2022-08-08T03:46:07.018Z,17.36
2022-08-08T03:46:49.220Z,17.32
2022-08-08T03:48:05.368Z,17.37
2022-08-08T03:49:57.941Z,17.38
2022-08-08T03:50:24.853Z,17.42
2022-08-08T03:51:50.933Z,17.34
2022-08-08T03:52:33.995Z,17.34
2022-08-08T03:53:47.426Z,17.43
2022-08-08T03:55:01.595Z,17.48
2022-08-08T03:55:55.922Z,17.54
2022-08-08T03:56:55.805Z,17.51
2022-08-08T03:58:30.142Z,17.59
2022-08-08T03:59:03.495Z,17.58
2022-08-08T04:00:11.802Z,17.50
2022-08-08T04:01:23.372Z,17.48
2022-08-08T04:02:36.797Z,17.35
2022-08-08T04:03:58.343Z,17.30
2022-08-08T04:04:38.741Z,17.21
2022-08-08T04:05:49.611Z,17.15
2022-08-08T04:06:57.566Z,17.03
2022-08-08T04:08:05.723Z,17.07
2022-08-08T04:09:11.275Z,17.19
2022-08-08T04:10:14.033Z,17.20
2022-08-08T04:11:17.658Z,17.32
2022-08-08T04:12:20.757Z,17.36
2022-08-08T04:13:25.622Z,17.35
2022-08-08T04:14:34.806Z,17.30
2022-08-08T04:15:38.677Z,17.37
2022-08-08T04:16:41.098Z,17.54
2022-08-08T04:17:58.032Z,17.54
2022-08-08T04:18:49.094Z,17.57
2022-08-08T04:19:55.480Z,17.62
2022-08-08T04:21:01.188Z,17.67
2022-08-08T04:22:05.316Z,17.72
2022-08-08T04:23:10.934Z,17.73
2022-08-08T04:24:28.198Z,17.70
2022-08-08T04:25:20.672Z,17.70
2022-08-08T04:26:25.869Z,17.61
2022-08-08T04:28:01.462Z,17.62
2022-08-08T04:28:39.947Z,17.58
2022-08-08T04:29:37.742Z,17.50
2022-08-08T04:30:44.417Z,17.48
2022-08-08T04:31:58.495Z,17.56
2022-08-08T04:32:51.654Z,17.65
2022-08-08T04:33:55.919Z,17.55
2022-08-08T04:34:58.925Z,17.45
2022-08-08T04:36:03.365Z,17.22
2022-08-08T04:37:07.128Z,17.31
2022-08-08T04:38:10.684Z,17.47
2022-08-08T04:40:03.271Z,17.55
2022-08-08T04:40:23.715Z,17.64
2022-08-08T04:41:36.514Z,17.70
2022-08-08T04:42:33.997Z,17.67
2022-08-08T04:43:45.937Z,17.72
2022-08-08T04:44:43.478Z,17.77
2022-08-08T04:45:49.445Z,17.77
2022-08-08T04:46:52.662Z,17.75
2022-08-08T04:47:56.170Z,17.80
2022-08-08T04:48:58.355Z,17.85
2022-08-08T04:50:04.901Z,17.87
2022-08-08T04:51:06.502Z,17.92
2022-08-08T04:52:10.516Z,17.81
2022-08-08T04:54:36.573Z,17.82
2022-08-08T04:54:38.978Z,17.82
2022-08-08T04:55:25.273Z,17.83
2022-08-08T04:56:29.892Z,17.81
2022-08-08T04:57:34.318Z,17.80
2022-08-08T04:58:36.369Z,17.62
2022-08-08T04:59:42.063Z,17.63
2022-08-08T05:00:47.700Z,17.71
2022-08-08T05:01:51.044Z,17.76
2022-08-08T05:02:56.412Z,17.81
2022-08-08T05:04:11.082Z,17.84
2022-08-08T05:05:06.611Z,17.94
2022-08-08T05:06:12.556Z,17.91
2022-08-08T05:07:15.743Z,17.89
2022-08-08T05:08:18.194Z,17.90
2022-08-08T05:09:24.165Z,17.95
2022-08-08T05:10:28.298Z,18.06
2022-08-08T05:11:38.662Z,18.18
2022-08-08T05:13:00.375Z,18.16
2022-08-08T05:13:57.505Z,18.19
2022-08-08T05:14:46.062Z,18.19
2022-08-08T05:16:55.396Z,18.10
2022-08-08T05:17:01.160Z,17.97
2022-08-08T05:18:00.778Z,17.97
2022-08-08T05:19:04.253Z,18.10
2022-08-08T05:20:14.967Z,18.22
2022-08-08T05:21:14.918Z,18.20
2022-08-08T05:22:19.410Z,18.22
2022-08-08T05:23:23.483Z,18.33
2022-08-08T05:24:26.996Z,18.35
2022-08-08T05:25:40.540Z,18.19
2022-08-08T05:26:35.833Z,18.26
2022-08-08T05:27:41.043Z,18.28
2022-08-08T05:28:56.638Z,18.23
2022-08-08T05:29:51.798Z,18.23
2022-08-08T05:30:52.063Z,18.17
2022-08-08T05:32:04.571Z,18.17
2022-08-08T05:33:03.363Z,18.31
2022-08-08T05:34:26.559Z,18.45
2022-08-08T05:35:33.455Z,18.52
2022-08-08T05:36:37.927Z,18.53
2022-08-08T05:37:52.731Z,18.48
2022-08-08T05:38:56.079Z,18.54
2022-08-08T05:40:05.033Z,18.61
2022-08-08T05:41:09.354Z,18.67
2022-08-08T05:42:13.982Z,18.66
2022-08-08T05:44:02.889Z,18.71
2022-08-08T05:44:31.217Z,18.74
2022-08-08T05:45:43.085Z,18.80
2022-08-08T05:46:47.487Z,18.89
2022-08-08T05:48:00.505Z,18.98
2022-08-08T05:48:54.749Z,19.09
2022-08-08T05:50:00.040Z,19.15
2022-08-08T05:51:15.061Z,19.24
2022-08-08T05:52:09.618Z,19.19
2022-08-08T05:53:53.719Z,19.25
2022-08-08T05:54:28.137Z,19.30
2022-08-08T05:55:23.008Z,19.42
2022-08-08T05:56:29.483Z,19.50
2022-08-08T05:58:05.554Z,19.53
2022-08-08T05:58:53.823Z,19.54
2022-08-08T05:59:53.635Z,19.39
2022-08-08T06:00:58.520Z,19.30
2022-08-08T06:02:03.396Z,19.21
2022-08-08T06:03:09.298Z,19.25
2022-08-08T06:04:27.795Z,19.31
2022-08-08T06:05:37.020Z,19.14
2022-08-08T06:06:41.497Z,19.23
2022-08-08T06:07:48.497Z,19.34
2022-08-08T06:09:00.353Z,19.39
2022-08-08T06:10:06.459Z,19.41
2022-08-08T06:11:09.567Z,19.39
2022-08-08T06:12:18.617Z,18.99
2022-08-08T06:13:22.777Z,18.81
2022-08-08T06:14:26.662Z,18.83
2022-08-08T06:15:50.968Z,18.75
2022-08-08T06:16:38.293Z,18.73
2022-08-08T06:18:18.371Z,18.79
2022-08-08T06:18:52.769Z,18.86
2022-08-08T06:19:58.110Z,18.95
2022-08-08T06:21:11.745Z,18.61
2022-08-08T06:23:18.401Z,18.54
2022-08-08T06:24:30.632Z,18.55
2022-08-08T06:25:33.390Z,18.61
2022-08-08T06:26:44.665Z,18.68
2022-08-08T06:27:54.987Z,18.43
2022-08-08T06:29:26.877Z,18.36
2022-08-08T06:30:20.164Z,18.39
2022-08-08T06:31:22.856Z,18.52
2022-08-08T06:32:29.841Z,18.53
2022-08-08T06:34:26.676Z,18.63
2022-08-08T06:34:56.386Z,18.81
2022-08-08T06:36:06.610Z,19.05
2022-08-08T06:37:24.136Z,19.21
2022-08-08T06:38:14.171Z,19.35
2022-08-08T06:39:16.573Z,19.50
2022-08-08T06:40:26.732Z,19.59
2022-08-08T06:41:33.111Z,19.62
2022-08-08T06:42:38.911Z,19.70
2022-08-08T06:43:47.659Z,19.86
2022-08-08T06:44:53.467Z,19.98
2022-08-08T06:45:56.639Z,20.01
2022-08-08T06:47:00.544Z,20.05
2022-08-08T06:48:05.820Z,20.19
2022-08-08T06:49:12.016Z,20.31
2022-08-08T06:50:17.628Z,20.44
2022-08-08T06:51:22.510Z,20.59
2022-08-08T06:52:27.813Z,20.72
2022-08-08T06:53:38.850Z,20.81
2022-08-08T06:54:37.124Z,20.81
2022-08-08T06:55:43.183Z,20.82
2022-08-08T06:56:47.044Z,20.78
2022-08-08T06:57:56.153Z,20.76
2022-08-08T06:58:56.918Z,20.71
2022-08-08T07:00:12.159Z,20.79
2022-08-08T07:01:14.352Z,20.79
2022-08-08T07:02:28.355Z,20.82
2022-08-08T07:03:52.566Z,20.83
2022-08-08T07:04:58.563Z,20.55
2022-08-08T07:06:06.540Z,20.52
2022-08-08T07:07:12.270Z,20.46
2022-08-08T07:08:22.957Z,20.23
2022-08-08T07:09:45.380Z,19.88
2022-08-08T07:10:40.296Z,19.94
2022-08-08T07:11:50.880Z,20.01
2022-08-08T07:12:56.522Z,19.83
2022-08-08T07:14:05.285Z,19.83
2022-08-08T07:15:32.786Z,19.93
2022-08-08T07:16:27.386Z,19.83
2022-08-08T07:17:40.382Z,19.71
2022-08-08T07:18:50.832Z,19.60
2022-08-08T07:20:04.315Z,19.60
2022-08-08T07:21:18.394Z,19.63
2022-08-08T07:22:18.763Z,19.74
2022-08-08T07:24:01.961Z,19.73
2022-08-08T07:24:47.128Z,19.53
2022-08-08T07:25:54.867Z,19.28
2022-08-08T07:26:59.466Z,19.19
2022-08-08T07:28:13.513Z,19.22
2022-08-08T07:29:54.598Z,19.30
2022-08-08T07:30:25.573Z,19.31
2022-08-08T07:31:25.937Z,19.33
2022-08-08T07:32:29.301Z,19.38
2022-08-08T07:33:37.880Z,19.44
2022-08-08T07:34:48.373Z,19.44
2022-08-08T07:35:45.740Z,19.49
2022-08-08T07:36:52.086Z,19.43
2022-08-08T07:38:09.864Z,19.45
2022-08-08T07:39:06.178Z,19.41
2022-08-08T07:40:21.122Z,19.33
2022-08-08T07:41:25.011Z,19.20
2022-08-08T07:42:32.896Z,19.27
2022-08-08T07:43:37.339Z,19.40
2022-08-08T07:44:43.394Z,19.58
2022-08-08T07:46:05.010Z,19.80
2022-08-08T07:46:49.280Z,20.03
2022-08-08T07:47:52.740Z,20.20
2022-08-08T07:48:56.257Z,20.37
2022-08-08T07:50:02.501Z,20.52
2022-08-08T07:51:08.097Z,20.70
2022-08-08T07:52:19.659Z,20.86
2022-08-08T07:54:03.052Z,20.97
2022-08-08T07:56:36.738Z,21.14
2022-08-08T07:58:14.543Z,21.04
2022-08-08T07:59:19.446Z,20.96
2022-08-08T08:00:25.675Z,20.85
2022-08-08T08:02:37.148Z,20.78
2022-08-08T08:02:45.025Z,20.83
2022-08-08T08:04:03.117Z,20.79
2022-08-08T08:05:15.531Z,20.95
2022-08-08T08:06:20.123Z,21.08
2022-08-08T08:07:32.242Z,20.95
2022-08-08T08:08:41.847Z,20.99
2022-08-08T08:09:45.854Z,21.16
2022-08-08T08:10:54.590Z,21.25
2022-08-08T08:12:00.001Z,21.39
2022-08-08T08:13:17.897Z,21.27
2022-08-08T08:14:17.626Z,21.38
2022-08-08T08:15:24.953Z,21.34
2022-08-08T08:16:32.609Z,21.46
2022-08-08T08:17:44.958Z,21.57
2022-08-08T08:18:55.861Z,21.77
2022-08-08T08:19:55.733Z,21.94
2022-08-08T08:21:02.166Z,22.08
2022-08-08T08:22:07.819Z,22.30
2022-08-08T08:23:13.589Z,22.44
2022-08-08T08:24:18.597Z,22.53
2022-08-08T08:25:40.962Z,22.53
2022-08-08T08:26:27.584Z,22.07
2022-08-08T08:27:34.502Z,21.99
2022-08-08T08:28:38.547Z,21.94
2022-08-08T08:29:43.635Z,21.79
2022-08-08T08:30:48.343Z,21.66
2022-08-08T08:31:57.245Z,21.63
2022-08-08T08:32:55.947Z,21.45
2022-08-08T08:34:01.106Z,21.46
2022-08-08T08:35:04.426Z,21.26
2022-08-08T08:36:17.531Z,21.33
2022-08-08T08:37:15.488Z,21.51
2022-08-08T08:38:19.225Z,21.47
2022-08-08T08:39:25.466Z,21.55
2022-08-08T08:40:31.239Z,21.68
2022-08-08T08:41:36.283Z,21.70
2022-08-08T08:42:39.927Z,21.83
2022-08-08T08:43:45.335Z,21.81
2022-08-08T08:44:49.055Z,21.64
2022-08-08T08:45:57.287Z,21.73
2022-08-08T08:47:02.036Z,21.80
2022-08-08T08:48:05.893Z,21.69
2022-08-08T08:49:11.516Z,21.60
2022-08-08T08:50:33.181Z,21.68
2022-08-08T08:51:25.047Z,21.77
2022-08-08T08:52:28.655Z,21.84
2022-08-08T08:53:56.602Z,21.97
2022-08-08T08:54:46.979Z,22.12
2022-08-08T08:55:54.158Z,22.17
2022-08-08T08:56:57.660Z,22.21
2022-08-08T08:58:01.945Z,22.20
2022-08-08T08:59:05.977Z,22.03
2022-08-08T09:00:17.143Z,22.13
2022-08-08T09:01:22.257Z,22.03
2022-08-08T09:02:27.808Z,21.92
2022-08-08T09:03:46.718Z,21.94
2022-08-08T09:04:39.645Z,22.05
2022-08-08T09:05:54.357Z,21.93
2022-08-08T09:06:53.853Z,21.68
2022-08-08T09:08:13.069Z,21.71
2022-08-08T09:09:18.909Z,21.71
2022-08-08T09:10:22.436Z,21.54
2022-08-08T09:11:33.182Z,21.38
2022-08-08T09:12:35.332Z,21.29
2022-08-08T09:13:39.421Z,21.35
2022-08-08T09:14:47.707Z,21.42
2022-08-08T09:15:50.187Z,21.27
2022-08-08T09:16:54.643Z,20.93
2022-08-08T09:17:58.517Z,20.83
2022-08-08T09:19:03.534Z,20.99
2022-08-08T09:21:57.058Z,20.85
2022-08-08T09:22:05.438Z,20.92
2022-08-08T09:22:19.631Z,20.80
2022-08-08T09:23:25.889Z,20.87
2022-08-08T09:24:29.394Z,21.04
2022-08-08T09:25:36.140Z,21.19
2022-08-08T09:27:02.906Z,21.32
2022-08-08T09:28:06.015Z,21.35
2022-08-08T09:29:10.406Z,21.55
2022-08-08T09:30:17.186Z,21.74
2022-08-08T09:31:42.621Z,21.98
2022-08-08T09:32:50.489Z,22.19
2022-08-08T09:34:16.008Z,22.34
2022-08-08T09:34:57.316Z,22.45
2022-08-08T09:36:01.386Z,22.56
2022-08-08T09:37:39.463Z,22.64
2022-08-08T09:38:17.919Z,22.55
2022-08-08T09:39:25.476Z,22.49
2022-08-08T09:40:41.884Z,22.34
2022-08-08T09:42:14.304Z,22.23
2022-08-08T09:42:52.202Z,21.66
2022-08-08T09:44:05.781Z,21.58
2022-08-08T09:45:20.844Z,21.61
2022-08-08T09:46:30.771Z,21.59
2022-08-08T09:48:02.527Z,21.68
2022-08-08T09:48:35.322Z,21.70
2022-08-08T09:49:42.884Z,21.75
2022-08-08T09:50:43.987Z,21.84
2022-08-08T09:52:06.137Z,21.79
2022-08-08T09:53:05.568Z,21.85
2022-08-08T09:54:15.312Z,21.82
2022-08-08T09:55:17.304Z,21.80
2022-08-08T09:56:24.881Z,21.81
2022-08-08T09:57:45.756Z,21.53
2022-08-08T09:58:54.497Z,21.60
2022-08-08T10:01:14.398Z,21.31
2022-08-08T10:02:21.400Z,21.31
2022-08-08T10:03:27.829Z,21.48
2022-08-08T10:04:42.194Z,21.69
2022-08-08T10:05:39.768Z,21.30
2022-08-08T10:06:44.953Z,21.37
2022-08-08T10:08:00.412Z,21.55
2022-08-08T10:08:58.636Z,21.79
2022-08-08T10:10:07.053Z,21.95
2022-08-08T10:12:22.490Z,22.11
2022-08-08T10:12:27.199Z,22.07
2022-08-08T10:13:25.967Z,22.27
2022-08-08T10:14:38.497Z,22.41
2022-08-08T10:15:39.108Z,22.44
2022-08-08T10:16:42.715Z,22.55
2022-08-08T10:17:57.219Z,22.71
2022-08-08T10:18:55.467Z,22.93
2022-08-08T10:20:01.036Z,23.20
2022-08-08T10:21:22.432Z,23.31
2022-08-08T10:22:13.876Z,23.20
2022-08-08T10:23:41.840Z,23.23
2022-08-08T10:24:29.556Z,23.17
2022-08-08T10:25:36.267Z,23.25
2022-08-08T10:26:57.248Z,23.05
2022-08-08T10:27:57.844Z,22.72
2022-08-08T10:29:08.556Z,22.65
2022-08-08T10:30:16.785Z,22.25
2022-08-08T10:31:17.930Z,22.13
2022-08-08T10:32:25.523Z,22.24
2022-08-08T10:33:38.328Z,22.45
2022-08-08T10:34:38.804Z,22.81
2022-08-08T10:36:08.567Z,22.95
2022-08-08T10:36:47.671Z,23.03
2022-08-08T10:37:55.554Z,23.10
2022-08-08T10:38:59.870Z,22.93
2022-08-08T10:40:16.115Z,23.15
2022-08-08T10:41:23.600Z,23.10
2022-08-08T10:42:34.407Z,23.41
2022-08-08T10:43:38.397Z,23.65
2022-08-08T10:44:42.737Z,23.68
2022-08-08T10:45:56.108Z,23.85
2022-08-08T10:46:52.953Z,24.07
2022-08-08T10:48:00.111Z,24.14
2022-08-08T10:49:02.706Z,23.94
2022-08-08T10:50:07.667Z,23.77
2022-08-08T10:51:13.230Z,23.85
2022-08-08T10:52:34.172Z,23.89
2022-08-08T10:53:56.831Z,23.90
2022-08-08T10:54:45.024Z,24.05
2022-08-08T10:55:53.532Z,24.24
2022-08-08T10:57:04.192Z,24.11
2022-08-08T10:58:10.025Z,23.59
2022-08-08T10:59:16.525Z,23.20
2022-08-08T11:00:25.771Z,22.92
2022-08-08T11:01:33.691Z,22.90
2022-08-08T11:02:37.612Z,22.97
2022-08-08T11:04:01.466Z,23.05
2022-08-08T11:04:53.643Z,23.10
2022-08-08T11:06:00.494Z,23.24
2022-08-08T11:07:00.532Z,23.42
2022-08-08T11:08:31.249Z,23.63
2022-08-08T11:09:19.471Z,23.75
2022-08-08T11:10:28.570Z,23.66
2022-08-08T11:11:32.016Z,22.74
2022-08-08T11:12:38.419Z,22.44
2022-08-08T11:13:52.044Z,22.33
2022-08-08T11:14:52.951Z,22.41
2022-08-08T11:16:07.830Z,22.31
2022-08-08T11:17:00.278Z,22.04
2022-08-08T11:18:05.287Z,22.08
2022-08-08T11:19:10.650Z,22.22
2022-08-08T11:20:17.789Z,22.47
2022-08-08T11:21:22.164Z,22.33
2022-08-08T11:22:28.809Z,22.36
2022-08-08T11:23:33.196Z,22.54
2022-08-08T11:24:36.730Z,22.72
2022-08-08T11:25:52.027Z,22.89
2022-08-08T11:26:56.981Z,22.93
2022-08-08T11:27:53.643Z,22.72
2022-08-08T11:28:58.164Z,22.89
2022-08-08T11:30:19.839Z,23.11
2022-08-08T11:31:09.742Z,22.92
2022-08-08T11:32:13.611Z,23.13
2022-08-08T11:33:16.828Z,23.32
2022-08-08T11:34:34.377Z,23.45
2022-08-08T11:35:38.480Z,23.18
2022-08-08T11:36:37.292Z,23.20
2022-08-08T11:38:37.030Z,23.07
2022-08-08T11:38:54.690Z,23.12
2022-08-08T11:39:57.368Z,22.96
2022-08-08T11:40:57.412Z,22.96
2022-08-08T11:42:00.317Z,23.03
2022-08-08T11:43:04.496Z,23.10
2022-08-08T11:44:08.084Z,23.08
2022-08-08T11:45:12.812Z,23.24
2022-08-08T11:46:19.664Z,23.40
2022-08-08T11:47:22.857Z,23.50
2022-08-08T11:48:27.723Z,23.41
2022-08-08T11:49:30.631Z,22.94
2022-08-08T11:50:34.936Z,22.87
2022-08-08T11:51:40.179Z,22.71
2022-08-08T11:52:47.140Z,22.69
2022-08-08T11:53:59.303Z,22.86
2022-08-08T11:54:54.540Z,22.67
2022-08-08T11:55:57.006Z,22.55
2022-08-08T11:57:14.102Z,22.64
2022-08-08T11:58:16.171Z,22.64
2022-08-08T11:59:19.041Z,22.83
2022-08-08T12:00:27.350Z,22.84
2022-08-08T12:01:32.685Z,22.94
2022-08-08T12:02:53.576Z,23.17
2022-08-08T12:04:04.476Z,23.03
2022-08-08T12:05:14.065Z,23.15
2022-08-08T12:06:18.224Z,23.33
2022-08-08T12:07:21.309Z,23.52
2022-08-08T12:08:33.249Z,23.40
2022-08-08T12:09:56.507Z,23.05
2022-08-08T12:10:51.796Z,22.92
2022-08-08T12:11:55.544Z,23.03
2022-08-08T12:13:03.950Z,22.86
2022-08-08T12:14:07.834Z,22.95
2022-08-08T12:15:18.106Z,22.88
2022-08-08T12:16:30.786Z,22.84
2022-08-08T12:17:36.795Z,23.17
2022-08-08T12:18:50.992Z,23.19
2022-08-08T12:19:56.800Z,23.17
2022-08-08T12:21:00.099Z,23.33
2022-08-08T12:22:08.759Z,23.42
2022-08-08T12:23:25.086Z,23.48
2022-08-08T12:24:18.075Z,23.40
2022-08-08T12:25:29.839Z,23.28
2022-08-08T12:26:38.678Z,23.19
2022-08-08T12:27:45.548Z,22.98
2022-08-08T12:28:57.221Z,22.96
2022-08-08T12:29:59.465Z,22.91
2022-08-08T12:31:07.420Z,22.97
2022-08-08T12:32:17.132Z,23.11
2022-08-08T12:33:37.345Z,23.27
2022-08-08T12:34:48.913Z,23.23
2022-08-08T12:35:53.121Z,23.06
2022-08-08T12:36:59.193Z,23.17
2022-08-08T12:38:04.512Z,23.16
2022-08-08T12:39:06.983Z,23.23
2022-08-08T12:40:22.451Z,23.11
2022-08-08T12:41:33.623Z,23.06
2022-08-08T12:42:33.750Z,23.17
2022-08-08T12:43:46.135Z,23.13
2022-08-08T12:44:38.870Z,23.21
2022-08-08T12:45:58.914Z,23.32
2022-08-08T12:47:00.230Z,23.41
2022-08-08T12:48:35.707Z,23.55
2022-08-08T12:49:25.185Z,23.65
2022-08-08T12:50:16.809Z,23.70
2022-08-08T12:51:21.839Z,23.65
2022-08-08T12:52:28.867Z,23.56
2022-08-08T12:53:37.966Z,23.52
2022-08-08T12:54:40.836Z,23.59
2022-08-08T12:56:18.245Z,23.73
2022-08-08T12:57:18.160Z,23.95
2022-08-08T12:58:20.737Z,24.18
2022-08-08T12:59:36.266Z,24.39
2022-08-08T13:00:33.818Z,24.43
2022-08-08T13:01:37.572Z,24.22
2022-08-08T13:02:42.088Z,24.13
2022-08-08T13:03:51.907Z,23.99
2022-08-08T13:04:57.163Z,23.96
2022-08-08T13:08:03.540Z,23.53
2022-08-08T13:08:53.590Z,23.02
2022-08-08T13:10:04.825Z,23.10
2022-08-08T13:11:03.620Z,23.07
2022-08-08T13:12:28.084Z,23.04
2022-08-08T13:13:28.945Z,22.84
2022-08-08T13:14:38.354Z,22.88
2022-08-08T13:15:42.965Z,22.69
2022-08-08T13:16:49.542Z,22.70
2022-08-08T13:17:51.822Z,22.65
2022-08-08T13:19:01.719Z,22.80
2022-08-08T13:20:04.246Z,22.83
2022-08-08T13:21:06.904Z,22.88
2022-08-08T13:22:12.088Z,22.95
2022-08-08T13:23:36.794Z,23.15
2022-08-08T13:24:38.482Z,23.41
2022-08-08T13:25:31.158Z,23.51
2022-08-08T13:26:34.717Z,23.39
2022-08-08T13:27:37.254Z,23.71
2022-08-08T13:28:42.360Z,23.78
2022-08-08T13:30:01.440Z,23.78
2022-08-08T13:31:04.599Z,23.55
2022-08-08T13:32:07.143Z,23.64
2022-08-08T13:33:11.042Z,23.68
2022-08-08T13:34:21.444Z,23.69
2022-08-08T13:35:29.627Z,23.76
2022-08-08T13:36:32.915Z,23.67
2022-08-08T13:38:05.246Z,23.70
2022-08-08T13:38:40.138Z,23.72
2022-08-08T13:39:45.521Z,23.84
2022-08-08T13:40:51.346Z,23.95
2022-08-08T13:42:01.270Z,23.92
2022-08-08T13:43:03.871Z,23.74
2022-08-08T13:44:10.775Z,23.68
2022-08-08T13:45:12.071Z,23.85
2022-08-08T13:46:26.336Z,23.73
2022-08-08T13:47:22.699Z,23.78
2022-08-08T13:48:26.113Z,23.86
2022-08-08T13:50:33.674Z,23.56
2022-08-08T13:50:48.845Z,23.59
2022-08-08T13:51:41.902Z,23.69
2022-08-08T13:52:48.230Z,23.50
2022-08-08T13:54:00.246Z,23.50
2022-08-08T13:55:02.755Z,23.69
2022-08-08T13:56:11.310Z,23.76
2022-08-08T13:57:15.003Z,23.66
2022-08-08T13:58:21.077Z,23.69
2022-08-08T13:59:32.803Z,23.65
2022-08-08T14:00:40.417Z,23.49
2022-08-08T14:01:57.152Z,23.50
2022-08-08T14:03:00.429Z,23.18
2022-08-08T14:04:02.664Z,23.10
2022-08-08T14:05:20.178Z,23.14
2022-08-08T14:06:33.527Z,23.24
2022-08-08T14:07:21.177Z,23.21
2022-08-08T14:08:30.343Z,23.20
2022-08-08T14:10:05.791Z,23.49
2022-08-08T14:10:39.510Z,23.64
2022-08-08T14:11:42.020Z,23.57
2022-08-08T14:12:46.269Z,24.00
2022-08-08T14:13:59.587Z,24.46
2022-08-08T14:14:54.426Z,24.76
2022-08-08T14:16:04.893Z,24.59
2022-08-08T14:17:11.860Z,24.47
2022-08-08T14:18:36.871Z,24.42
2022-08-08T14:19:58.156Z,24.38
2022-08-08T14:20:55.988Z,24.05
2022-08-08T14:21:48.725Z,23.89
2022-08-08T14:22:52.134Z,23.85
2022-08-08T14:24:06.652Z,23.98
2022-08-08T14:25:07.561Z,23.97
2022-08-08T14:26:10.758Z,24.04
2022-08-08T14:27:27.183Z,24.12
2022-08-08T14:28:30.391Z,23.98
2022-08-08T14:29:34.665Z,24.03
2022-08-08T14:30:38.355Z,23.91
2022-08-08T14:32:08.787Z,23.88
2022-08-08T14:32:54.348Z,23.87
2022-08-08T14:33:57.222Z,24.01
2022-08-08T14:35:05.682Z,24.02
2022-08-08T14:36:09.412Z,24.08
2022-08-08T14:37:15.593Z,23.81
2022-08-08T14:38:34.212Z,23.77
2022-08-08T14:39:24.903Z,23.67
2022-08-08T14:40:27.720Z,23.63
2022-08-08T14:41:48.767Z,23.37
2022-08-08T14:42:55.255Z,23.24
2022-08-08T14:44:10.419Z,23.36
2022-08-08T14:45:10.084Z,23.55
2022-08-08T14:46:17.223Z,23.40
2022-08-08T14:47:21.727Z,23.43
2022-08-08T14:48:34.459Z,23.54
2022-08-08T14:49:33.664Z,23.53
2022-08-08T14:50:39.536Z,23.24
2022-08-08T14:51:51.814Z,23.28
2022-08-08T14:52:53.910Z,23.32
2022-08-08T14:53:56.737Z,23.29
2022-08-08T14:54:59.543Z,23.48
2022-08-08T14:56:04.561Z,23.50
2022-08-08T14:57:06.181Z,23.60
2022-08-08T14:58:16.101Z,23.77
2022-08-08T14:59:22.497Z,23.98
2022-08-08T15:00:22.931Z,24.17
2022-08-08T15:01:41.045Z,24.29
2022-08-08T15:02:34.476Z,24.36